メインページ
METAR-TAF:

METAR-TAF

空港 :

Pocono Mountains Municipal Airport

Mount Pocono, ペンシルバニア州, アメリカ合衆国

緯度: 41-08-20N, 経度: 075-23-46W, 海抜: 584m

現時点の気象観測

当レポートは48分前の17:53(UTC)に作成
東/南東の風 8kt、から南/南東の間で変化する
気温 27°C
湿度 58%
気圧 1023 hPa
視程: 16.1km
晴天

METAR: KMPO 261753Z AUTO 12008KT 080V150 10SM CLR 27/18 A3021 RMK AO2 SLP219 T02720178 10272 20172 58008

時間: 14:41 (18:41 UTC)


TAF: 見つかりません

4,000以上の空港の気象観測と天気予報(METAR報とTAF報)

利用可能な観測所は地図上に黄色い丸と赤い丸で示す。

丸の上にカーソルを重ねると観測所名を参照できる。

次にクリックすると気象観測と天気予報を参照できる。

マップの切り替え:黒色「×」印の緑ボタンをクリックして拡大、「-」印の緑ボタンをクリックして縮小、緑色の三角印をクリックして隣りの地図に切り替え


METAR-TAF: